📊 Raw Sensor Data

Showing records 34426 to 34450 of 84,851 total

ID Distance (ft) Battery V Battery A Int Temp (°F) Int Humid (%) Ext Temp (°F) Solar V RSSI SNR Time Stamp
50438 15.5 3.80 -5 63 45 64 0.00 -70 8 08/27/2025 11:30 PM
50437 15.5 3.80 -5 63 45 64 0.00 -70 8 08/27/2025 11:15 PM
50436 15.5 3.80 -5 64 46 65 0.00 -71 8 08/27/2025 11:00 PM
50435 15.5 3.80 -5 64 46 65 0.00 -70 8 08/27/2025 10:45 PM
50434 15.5 3.80 -5 64 46 65 0.00 -70 8 08/27/2025 10:30 PM
50433 15.5 3.80 -5 65 46 66 0.00 -71 8 08/27/2025 10:15 PM
50432 15.5 3.80 -5 65 47 66 0.10 -71 8 08/27/2025 10:00 PM
50431 15.5 3.80 -5 65 47 66 0.00 -70 8 08/27/2025 09:45 PM
50430 15.5 3.86 -5 66 48 67 0.00 -70 8 08/27/2025 09:30 PM
50429 15.5 3.86 -5 67 48 67 0.00 -70 7 08/27/2025 09:15 PM
50428 15.5 3.86 -5 67 49 68 0.00 -70 8 08/27/2025 09:00 PM
50427 15.5 3.80 -5 68 50 68 0.00 -71 8 08/27/2025 08:45 PM
50426 15.5 3.80 -5 70 51 69 0.00 -70 8 08/27/2025 08:30 PM
50425 15.5 3.80 -5 71 53 70 0.10 -71 7 08/27/2025 08:15 PM
50424 15.5 3.80 -5 73 55 71 0.30 -71 8 08/27/2025 08:00 PM
50423 15.5 3.80 -10 77 56 73 2.10 -72 7 08/27/2025 07:45 PM
50422 15.6 3.87 0 82 55 76 4.50 -71 8 08/27/2025 07:30 PM
50421 15.6 3.88 0 87 53 81 4.50 -71 8 08/27/2025 07:15 PM
50420 15.7 3.83 -17 91 52 82 4.60 -71 8 08/27/2025 07:00 PM
50419 15.7 3.88 21 93 51 86 4.50 -72 8 08/27/2025 06:45 PM
50418 15.7 3.82 0 97 50 88 5.10 -71 8 08/27/2025 06:15 PM
50417 15.7 3.82 0 100 49 90 5.10 -71 8 08/27/2025 06:00 PM
50416 16.0 3.82 0 101 48 92 5.10 -71 8 08/27/2025 05:45 PM
50415 15.8 3.82 0 101 48 92 5.10 -71 8 08/27/2025 05:30 PM
50414 15.8 3.82 0 102 47 90 5.10 -71 8 08/27/2025 05:15 PM